Time;durP1;ratioP1;P1;durP2;ratioP2;P2;SDS_P1;SDS_P2;PMS_P1;PMS_P2;Temp;Humidity;BMP_temperature;BMP_pressure;BME280_temperature;BME280_humidity;BME280_pressure;Samples;Min_cycle;Max_cycle;Signal;HPM_P1;HPM_P2
2023/10/02 00:01:21;;;;;;;9.63;5.00;;;;;;;;;;5110944;28;20624;-42
2023/10/02 00:03:48;;;;;;;8.70;4.93;;;;;;;;;;5031350;28;20210;-41
2023/10/02 00:06:17;;;;;;;8.10;4.70;;;;;;;;;;5011076;28;20207;-46
2023/10/02 00:08:49;;;;;;;8.80;4.63;;;;;;;;;;5036665;28;20219;-42
2023/10/02 00:14:20;;;;;;;7.77;4.37;;;;;;;;;;5004017;28;20202;-43
2023/10/02 00:16:59;;;;;;;7.10;4.50;;;;;;;;;;5064067;28;20223;-42
2023/10/02 00:19:28;;;;;;;8.67;4.60;;;;;;;;;;5030433;28;20219;-43
2023/10/02 00:21:57;;;;;;;9.87;4.73;;;;;;;;;;5018888;28;20208;-41
2023/10/02 00:24:26;;;;;;;9.43;4.67;;;;;;;;;;5029983;28;20642;-42
2023/10/02 00:26:53;;;;;;;6.33;4.40;;;;;;;;;;5041941;28;20229;-37
2023/10/02 00:29:23;;;;;;;8.80;4.50;;;;;;;;;;5044360;28;20239;-43
2023/10/02 00:31:50;;;;;;;8.53;4.80;;;;;;;;;;5022275;28;20211;-45
2023/10/02 00:34:30;;;;;;;8.27;4.33;;;;;;;;;;5000096;28;20215;-41
2023/10/02 00:36:57;;;;;;;9.03;4.53;;;;;;;;;;5043019;28;20462;-42
2023/10/02 00:39:32;;;;;;;10.83;4.10;;;;;;;;;;5046270;28;20299;-44
2023/10/02 00:42:10;;;;;;;9.30;4.33;;;;;;;;;;5055101;28;20231;-45
2023/10/02 00:47:35;;;;;;;10.03;4.50;;;;;;;;;;5073135;28;20214;-40
2023/10/02 00:50:10;;;;;;;10.67;4.77;;;;;;;;;;5000629;28;20223;-40
2023/10/02 00:52:40;;;;;;;7.97;3.93;;;;;;;;;;5005081;28;20209;-45
2023/10/02 00:55:08;;;;;;;8.87;4.60;;;;;;;;;;5110882;28;20200;-42
2023/10/02 00:57:36;;;;;;;7.27;4.53;;;;;;;;;;5050058;28;20200;-39
2023/10/02 01:00:16;;;;;;;6.37;3.97;;;;;;;;;;5003547;28;20329;-44
2023/10/02 01:02:45;;;;;;;9.40;4.83;;;;;;;;;;5005776;28;20211;-42
2023/10/02 01:05:15;;;;;;;7.77;4.47;;;;;;;;;;5077792;28;20316;-44
2023/10/02 01:07:42;;;;;;;8.10;4.40;;;;;;;;;;5065649;28;20218;-45
2023/10/02 01:10:17;;;;;;;8.20;4.63;;;;;;;;;;5029789;28;20228;-45
2023/10/02 01:12:49;;;;;;;9.13;4.77;;;;;;;;;;5007531;28;20233;-44
2023/10/02 01:15:20;;;;;;;11.57;4.47;;;;;;;;;;5110256;28;20204;-45
2023/10/02 01:17:49;;;;;;;9.20;4.80;;;;;;;;;;5057318;28;20214;-43
2023/10/02 01:20:28;;;;;;;7.47;4.10;;;;;;;;;;5001325;28;20223;-43
2023/10/02 01:22:56;;;;;;;6.87;3.57;;;;;;;;;;5065028;28;20200;-44
2023/10/02 01:25:27;;;;;;;8.57;4.40;;;;;;;;;;5074218;28;20210;-47
2023/10/02 01:27:56;;;;;;;9.63;4.23;;;;;;;;;;5019030;28;20204;-42
2023/10/02 01:30:24;;;;;;;9.73;4.53;;;;;;;;;;5068372;28;20234;-42
2023/10/02 01:33:06;;;;;;;7.67;4.40;;;;;;;;;;5081048;28;20216;-45
2023/10/02 01:35:33;;;;;;;7.50;4.23;;;;;;;;;;5014041;28;20204;-42
2023/10/02 01:38:00;;;;;;;10.83;4.87;;;;;;;;;;5070623;28;20203;-46
2023/10/02 01:40:34;;;;;;;9.30;5.00;;;;;;;;;;5081617;28;20230;-36
2023/10/02 01:43:12;;;;;;;7.27;4.40;;;;;;;;;;5043675;28;20208;-42
2023/10/02 01:45:42;;;;;;;8.20;4.43;;;;;;;;;;5052267;28;20207;-38
2023/10/02 01:48:14;;;;;;;6.37;3.77;;;;;;;;;;5067538;28;20203;-41
2023/10/02 01:50:43;;;;;;;9.10;4.57;;;;;;;;;;4998243;28;20325;-42
2023/10/02 01:53:28;;;;;;;8.47;4.87;;;;;;;;;;5025904;28;20211;-46
2023/10/02 01:56:00;;;;;;;9.87;5.00;;;;;;;;;;5037985;28;20218;-45
2023/10/02 01:58:27;;;;;;;7.57;4.53;;;;;;;;;;5057466;28;20211;-42
2023/10/02 02:00:57;;;;;;;8.03;4.03;;;;;;;;;;5024284;28;20224;-42
2023/10/02 02:03:28;;;;;;;8.83;4.33;;;;;;;;;;5026943;28;20203;-42
2023/10/02 02:05:55;;;;;;;8.43;4.73;;;;;;;;;;5012475;28;20215;-46
2023/10/02 02:08:22;;;;;;;9.97;4.60;;;;;;;;;;5007169;28;20214;-41
2023/10/02 02:10:51;;;;;;;10.10;5.17;;;;;;;;;;5000703;28;20231;-43
2023/10/02 02:13:20;;;;;;;10.27;4.67;;;;;;;;;;5066231;28;20207;-44
2023/10/02 02:15:51;;;;;;;8.20;4.80;;;;;;;;;;5028876;28;20211;-41
2023/10/02 02:18:20;;;;;;;6.43;4.03;;;;;;;;;;5008241;28;20222;-38
2023/10/02 02:20:58;;;;;;;7.97;4.50;;;;;;;;;;5001951;28;20632;-44
2023/10/02 02:23:27;;;;;;;8.63;4.20;;;;;;;;;;4999456;28;20203;-40
2023/10/02 02:25:54;;;;;;;7.67;4.17;;;;;;;;;;5075008;28;20212;-43
2023/10/02 02:28:23;;;;;;;6.40;3.93;;;;;;;;;;5062652;28;20410;-45
2023/10/02 02:30:51;;;;;;;11.00;4.70;;;;;;;;;;5066193;28;20227;-43
2023/10/02 02:33:34;;;;;;;8.23;4.77;;;;;;;;;;5050394;28;20460;-44
2023/10/02 02:36:05;;;;;;;7.97;4.13;;;;;;;;;;5015591;28;20653;-44
2023/10/02 02:38:34;;;;;;;9.83;5.03;;;;;;;;;;5073423;28;20200;-45
2023/10/02 02:41:07;;;;;;;10.43;4.63;;;;;;;;;;5043689;28;20227;-45
2023/10/02 02:43:38;;;;;;;7.50;4.17;;;;;;;;;;5081606;28;20196;-44
2023/10/02 02:46:06;;;;;;;8.87;4.70;;;;;;;;;;5059872;28;20632;-46
2023/10/02 02:48:43;;;;;;;7.83;4.07;;;;;;;;;;5031740;28;20302;-46
2023/10/02 02:51:18;;;;;;;10.87;4.83;;;;;;;;;;5068929;28;20234;-44
2023/10/02 02:53:46;;;;;;;9.77;4.50;;;;;;;;;;5066052;28;20287;-43
2023/10/02 02:56:18;;;;;;;6.67;4.47;;;;;;;;;;5034583;28;20204;-40
2023/10/02 02:58:48;;;;;;;7.50;4.13;;;;;;;;;;5009589;28;20629;-46
2023/10/02 03:01:21;;;;;;;6.53;4.33;;;;;;;;;;5086414;28;20306;-44
2023/10/02 03:03:49;;;;;;;8.80;4.87;;;;;;;;;;5005387;28;20218;-41
2023/10/02 03:06:18;;;;;;;6.97;4.00;;;;;;;;;;5015136;28;20303;-44
2023/10/02 03:08:45;;;;;;;10.33;4.50;;;;;;;;;;5053731;28;20203;-44
2023/10/02 03:11:13;;;;;;;9.63;4.37;;;;;;;;;;5038642;28;20318;-40
2023/10/02 03:13:41;;;;;;;6.77;3.87;;;;;;;;;;5041662;28;20207;-46
2023/10/02 03:16:18;;;;;;;7.70;4.27;;;;;;;;;;5108117;28;20276;-42
2023/10/02 03:18:48;;;;;;;7.27;4.23;;;;;;;;;;5018276;28;20206;-43
2023/10/02 03:21:23;;;;;;;8.90;4.67;;;;;;;;;;5076059;28;20228;-42
2023/10/02 03:23:50;;;;;;;8.10;4.03;;;;;;;;;;5027262;28;20217;-44
2023/10/02 03:26:40;;;;;;;5.80;4.03;;;;;;;;;;5037171;28;20204;-45
2023/10/02 03:29:11;;;;;;;10.63;4.53;;;;;;;;;;5044159;28;20231;-45
2023/10/02 03:31:43;;;;;;;6.93;4.00;;;;;;;;;;5066667;28;20697;-42
2023/10/02 03:34:27;;;;;;;9.40;4.30;;;;;;;;;;5018425;28;20203;-41
2023/10/02 03:36:59;;;;;;;7.57;4.37;;;;;;;;;;5012698;28;20275;-42
2023/10/02 03:42:12;;;;;;;8.43;4.83;;;;;;;;;;5003640;27;20214;-47
2023/10/02 03:44:39;;;;;;;7.83;4.53;;;;;;;;;;5090817;28;20535;-44
2023/10/02 03:47:12;;;;;;;7.53;3.93;;;;;;;;;;5034229;28;20215;-41
2023/10/02 03:49:40;;;;;;;7.23;3.70;;;;;;;;;;5056518;28;20226;-42
2023/10/02 03:52:07;;;;;;;6.50;3.90;;;;;;;;;;5039246;28;20200;-42
2023/10/02 03:54:35;;;;;;;9.23;4.50;;;;;;;;;;5075925;28;20241;-44
2023/10/02 03:57:02;;;;;;;6.90;4.13;;;;;;;;;;5026047;28;20212;-45
2023/10/02 03:59:32;;;;;;;6.27;3.50;;;;;;;;;;5082228;28;20309;-42
2023/10/02 04:02:24;;;;;;;7.87;3.80;;;;;;;;;;5019932;28;20207;-44
2023/10/02 04:04:49;;;;;;;10.03;4.27;;;;;;;;;;5035933;28;20252;-45
2023/10/02 04:07:17;;;;;;;5.83;3.50;;;;;;;;;;5031930;28;20207;-42
2023/10/02 04:09:49;;;;;;;6.97;4.07;;;;;;;;;;5111010;28;20243;-43
2023/10/02 04:12:18;;;;;;;7.03;3.97;;;;;;;;;;5044526;28;20279;-42
2023/10/02 04:14:46;;;;;;;7.60;4.03;;;;;;;;;;5059752;28;20200;-38
2023/10/02 04:17:20;;;;;;;9.07;4.30;;;;;;;;;;5029084;28;20204;-44
2023/10/02 04:19:49;;;;;;;7.37;4.37;;;;;;;;;;5021199;28;20235;-40
2023/10/02 04:22:19;;;;;;;10.60;4.53;;;;;;;;;;5082108;28;20208;-44
2023/10/02 04:24:54;;;;;;;5.57;3.63;;;;;;;;;;5068277;28;20202;-46
2023/10/02 04:27:25;;;;;;;6.23;3.70;;;;;;;;;;5046134;28;20196;-40
2023/10/02 04:32:51;;;;;;;7.60;3.67;;;;;;;;;;4988788;28;20205;-42
2023/10/02 04:38:08;;;;;;;6.50;4.40;;;;;;;;;;5096143;28;20214;-44
2023/10/02 04:40:44;;;;;;;9.37;4.70;;;;;;;;;;5057685;28;20224;-44
2023/10/02 04:43:22;;;;;;;8.00;4.03;;;;;;;;;;5002294;28;20323;-42
2023/10/02 04:45:48;;;;;;;6.83;4.13;;;;;;;;;;5081037;28;20203;-45
2023/10/02 04:48:16;;;;;;;7.77;3.90;;;;;;;;;;5090694;28;20203;-45
2023/10/02 04:50:47;;;;;;;7.90;4.30;;;;;;;;;;4998849;28;20253;-41
2023/10/02 04:53:22;;;;;;;9.13;3.67;;;;;;;;;;5020213;28;20214;-44
2023/10/02 04:55:57;;;;;;;7.97;4.23;;;;;;;;;;5086928;28;20545;-44
2023/10/02 04:58:27;;;;;;;6.57;4.23;;;;;;;;;;5009622;28;20222;-37
2023/10/02 05:03:36;;;;;;;9.93;4.57;;;;;;;;;;5020861;28;20199;-41
2023/10/02 05:06:04;;;;;;;6.23;4.00;;;;;;;;;;4993285;28;20219;-43
2023/10/02 05:08:37;;;;;;;7.43;4.33;;;;;;;;;;5044757;28;20246;-41
2023/10/02 05:11:06;;;;;;;7.47;3.70;;;;;;;;;;5001898;28;20263;-43
2023/10/02 05:13:53;;;;;;;6.53;3.87;;;;;;;;;;5063902;28;20200;-43
2023/10/02 05:16:27;;;;;;;6.40;3.67;;;;;;;;;;5054093;28;20204;-43
2023/10/02 05:18:54;;;;;;;8.63;4.37;;;;;;;;;;5092611;28;20200;-44
2023/10/02 05:21:35;;;;;;;9.97;5.00;;;;;;;;;;4996507;28;20223;-41
2023/10/02 05:24:03;;;;;;;7.27;4.00;;;;;;;;;;5001531;28;20207;-45
2023/10/02 05:26:38;;;;;;;7.73;4.73;;;;;;;;;;5021898;28;20227;-41
2023/10/02 05:29:06;;;;;;;5.97;4.13;;;;;;;;;;5084696;28;20211;-43
2023/10/02 05:31:35;;;;;;;8.37;3.97;;;;;;;;;;5009934;28;20227;-40
2023/10/02 05:34:07;;;;;;;7.30;3.83;;;;;;;;;;5060943;28;20225;-40
2023/10/02 05:36:36;;;;;;;6.73;3.70;;;;;;;;;;4999738;28;20203;-45
2023/10/02 05:39:28;;;;;;;7.57;4.03;;;;;;;;;;5008228;28;20214;-38
2023/10/02 05:42:05;;;;;;;7.00;3.87;;;;;;;;;;5003904;28;20210;-43
2023/10/02 05:44:33;;;;;;;8.63;4.10;;;;;;;;;;5009584;28;20199;-42
2023/10/02 05:47:05;;;;;;;8.77;4.40;;;;;;;;;;5010297;28;20286;-45
2023/10/02 05:49:33;;;;;;;7.83;4.37;;;;;;;;;;5015438;28;20224;-39
2023/10/02 05:52:02;;;;;;;7.53;3.93;;;;;;;;;;5001987;28;20233;-44
2023/10/02 05:54:35;;;;;;;9.70;4.00;;;;;;;;;;5052830;28;20257;-37
2023/10/02 05:57:12;;;;;;;8.20;3.93;;;;;;;;;;5032527;28;20211;-42
2023/10/02 05:59:45;;;;;;;7.57;4.50;;;;;;;;;;5018056;27;20283;-42
2023/10/02 06:02:12;;;;;;;9.03;4.03;;;;;;;;;;5031724;28;20211;-38
2023/10/02 06:04:43;;;;;;;6.77;3.83;;;;;;;;;;5072651;28;20219;-41
2023/10/02 06:07:12;;;;;;;5.97;3.73;;;;;;;;;;5010775;28;20216;-40
2023/10/02 06:09:44;;;;;;;6.37;3.90;;;;;;;;;;5036262;28;20227;-44
2023/10/02 06:12:12;;;;;;;8.60;5.17;;;;;;;;;;5025215;28;20216;-39
2023/10/02 06:14:39;;;;;;;9.60;4.30;;;;;;;;;;5006532;28;20294;-39
2023/10/02 06:17:11;;;;;;;10.83;4.50;;;;;;;;;;5051623;28;20207;-39
2023/10/02 06:19:43;;;;;;;8.40;4.67;;;;;;;;;;5040734;28;20232;-43
2023/10/02 06:22:14;;;;;;;7.50;4.50;;;;;;;;;;5001089;28;20208;-45
2023/10/02 06:24:42;;;;;;;6.90;4.47;;;;;;;;;;5009868;28;20203;-43
2023/10/02 06:27:14;;;;;;;8.47;4.83;;;;;;;;;;5008871;28;20212;-45
2023/10/02 06:29:44;;;;;;;8.47;4.57;;;;;;;;;;5015566;28;20227;-42
2023/10/02 06:32:19;;;;;;;8.23;4.80;;;;;;;;;;5047697;28;20220;-39
2023/10/02 06:34:47;;;;;;;8.00;4.17;;;;;;;;;;5018353;28;20207;-41
2023/10/02 06:37:17;;;;;;;8.30;4.50;;;;;;;;;;5051510;28;20208;-45
2023/10/02 06:39:46;;;;;;;8.40;4.90;;;;;;;;;;5050956;28;20228;-40
2023/10/02 06:42:15;;;;;;;8.97;4.43;;;;;;;;;;5018134;28;20204;-42
2023/10/02 06:44:52;;;;;;;8.67;5.13;;;;;;;;;;5047053;28;20207;-43
2023/10/02 06:47:21;;;;;;;9.70;4.77;;;;;;;;;;5043002;28;20284;-44
2023/10/02 06:49:51;;;;;;;9.67;4.60;;;;;;;;;;5028960;28;20239;-43
2023/10/02 06:52:20;;;;;;;9.93;5.20;;;;;;;;;;5001534;28;20219;-43
2023/10/02 06:54:48;;;;;;;9.67;5.10;;;;;;;;;;5009214;28;20290;-44
2023/10/02 06:57:17;;;;;;;7.67;3.97;;;;;;;;;;4997356;28;20298;-39
2023/10/02 06:59:52;;;;;;;10.37;4.60;;;;;;;;;;5006425;28;20640;-44
2023/10/02 07:02:20;;;;;;;9.30;4.83;;;;;;;;;;5009153;28;20203;-42
2023/10/02 07:04:47;;;;;;;6.53;3.63;;;;;;;;;;5032774;28;20211;-41
2023/10/02 07:07:24;;;;;;;8.03;4.60;;;;;;;;;;5001258;28;20227;-44
2023/10/02 07:09:52;;;;;;;10.37;4.73;;;;;;;;;;5047499;28;20303;-40
2023/10/02 07:12:20;;;;;;;9.17;5.23;;;;;;;;;;4997640;28;20219;-43
2023/10/02 07:14:48;;;;;;;8.47;4.60;;;;;;;;;;5006114;28;20206;-42
2023/10/02 07:17:21;;;;;;;8.20;4.97;;;;;;;;;;5017822;28;20211;-46
2023/10/02 07:19:52;;;;;;;10.37;4.57;;;;;;;;;;5028057;28;20234;-44
2023/10/02 07:22:23;;;;;;;7.87;4.37;;;;;;;;;;5026430;28;20199;-43
2023/10/02 07:24:52;;;;;;;6.57;4.37;;;;;;;;;;5045034;28;20231;-41
2023/10/02 07:27:26;;;;;;;9.83;5.53;;;;;;;;;;5016018;28;20210;-42
2023/10/02 07:29:57;;;;;;;9.57;4.27;;;;;;;;;;5007625;28;20234;-40
2023/10/02 07:32:25;;;;;;;9.33;5.20;;;;;;;;;;5001352;28;20215;-45
2023/10/02 07:34:53;;;;;;;8.03;4.80;;;;;;;;;;5016546;28;20212;-43
2023/10/02 07:37:22;;;;;;;8.60;4.50;;;;;;;;;;5020978;28;20263;-43
2023/10/02 07:39:56;;;;;;;10.30;5.67;;;;;;;;;;5029182;28;20263;-41
2023/10/02 07:42:24;;;;;;;8.93;4.83;;;;;;;;;;5032938;28;20199;-42
2023/10/02 07:44:52;;;;;;;11.23;5.83;;;;;;;;;;5011900;28;20211;-42
2023/10/02 07:47:21;;;;;;;7.77;4.83;;;;;;;;;;5019715;28;20218;-45
2023/10/02 07:49:51;;;;;;;10.77;6.03;;;;;;;;;;5078849;28;20275;-40
2023/10/02 07:52:29;;;;;;;11.00;5.40;;;;;;;;;;5027129;28;20214;-42
2023/10/02 07:54:59;;;;;;;10.17;5.37;;;;;;;;;;5022776;28;20312;-45
2023/10/02 07:57:30;;;;;;;8.37;5.07;;;;;;;;;;4996210;28;20199;-42
2023/10/02 07:59:58;;;;;;;14.87;5.33;;;;;;;;;;5028929;28;20240;-43
2023/10/02 08:02:30;;;;;;;7.60;4.47;;;;;;;;;;4998026;28;20264;-39
2023/10/02 08:04:59;;;;;;;10.77;6.23;;;;;;;;;;5002176;28;20578;-41
2023/10/02 08:07:27;;;;;;;11.07;5.73;;;;;;;;;;5039864;28;20212;-44
2023/10/02 08:09:57;;;;;;;10.63;5.70;;;;;;;;;;5071515;28;20232;-45
2023/10/02 08:12:34;;;;;;;10.43;6.17;;;;;;;;;;5015003;28;20701;-42
2023/10/02 08:15:04;;;;;;;13.10;6.10;;;;;;;;;;5005247;28;20474;-45
2023/10/02 08:20:16;;;;;;;10.87;6.23;;;;;;;;;;5003315;28;20409;-43
2023/10/02 08:22:45;;;;;;;8.83;5.63;;;;;;;;;;5012959;28;20260;-42
2023/10/02 08:25:14;;;;;;;10.80;6.13;;;;;;;;;;5013589;28;20666;-43
2023/10/02 08:27:43;;;;;;;10.40;5.53;;;;;;;;;;4995384;28;20207;-37
2023/10/02 08:30:27;;;;;;;11.60;6.37;;;;;;;;;;5010858;28;20319;-44
2023/10/02 08:32:54;;;;;;;13.17;5.83;;;;;;;;;;5018331;28;20234;-37
2023/10/02 08:35:24;;;;;;;12.03;5.83;;;;;;;;;;4998151;28;20220;-42
2023/10/02 08:37:54;;;;;;;10.67;6.23;;;;;;;;;;5032046;28;20219;-44
2023/10/02 08:40:21;;;;;;;11.87;6.60;;;;;;;;;;5020647;28;20318;-44
2023/10/02 08:42:52;;;;;;;14.27;6.97;;;;;;;;;;5000677;27;20214;-44
2023/10/02 08:45:20;;;;;;;14.17;6.87;;;;;;;;;;5008928;28;20204;-41
2023/10/02 08:47:48;;;;;;;12.13;6.53;;;;;;;;;;5008450;28;20203;-39
2023/10/02 08:50:16;;;;;;;10.37;6.00;;;;;;;;;;5026512;28;20226;-45
2023/10/02 08:52:50;;;;;;;12.00;6.90;;;;;;;;;;5057597;28;20314;-41
2023/10/02 08:55:33;;;;;;;12.80;6.23;;;;;;;;;;5011223;28;20274;-37
2023/10/02 08:58:15;;;;;;;12.57;7.20;;;;;;;;;;5023053;28;20294;-45
2023/10/02 09:01:17;;;;;;;14.67;7.17;;;;;;;;;;5053655;28;20224;-43
2023/10/02 09:04:21;;;;;;;10.80;6.10;;;;;;;;;;5013199;28;20225;-44
2023/10/02 09:06:49;;;;;;;13.10;6.77;;;;;;;;;;5007810;28;20264;-42
2023/10/02 09:09:26;;;;;;;13.93;6.63;;;;;;;;;;5010827;28;20253;-42
2023/10/02 09:11:57;;;;;;;13.83;6.27;;;;;;;;;;5004432;28;20235;-40
2023/10/02 09:17:44;;;;;;;12.70;7.00;;;;;;;;;;5128316;27;20531;-46
2023/10/02 09:20:15;;;;;;;12.93;6.83;;;;;;;;;;5100797;28;20228;-46
2023/10/02 09:22:44;;;;;;;11.57;6.30;;;;;;;;;;5087055;28;20204;-41
2023/10/02 09:25:12;;;;;;;13.87;6.70;;;;;;;;;;5094683;28;20569;-45
2023/10/02 09:27:55;;;;;;;11.90;6.40;;;;;;;;;;5082725;28;20717;-42
2023/10/02 09:30:36;;;;;;;15.20;7.23;;;;;;;;;;5088092;28;20226;-44
2023/10/02 09:33:07;;;;;;;12.87;6.40;;;;;;;;;;5082758;28;20674;-41
2023/10/02 09:35:39;;;;;;;12.87;6.53;;;;;;;;;;5089768;28;20228;-45
2023/10/02 09:38:08;;;;;;;12.50;6.80;;;;;;;;;;5085705;28;20208;-45
2023/10/02 09:40:56;;;;;;;12.57;6.23;;;;;;;;;;5091423;28;20290;-43
2023/10/02 09:43:24;;;;;;;12.77;6.60;;;;;;;;;;5086825;28;20232;-41
2023/10/02 09:45:53;;;;;;;12.37;6.43;;;;;;;;;;5093591;28;20193;-44
2023/10/02 09:48:53;;;;;;;12.47;6.67;;;;;;;;;;5091533;28;20239;-44
2023/10/02 09:51:21;;;;;;;12.33;6.40;;;;;;;;;;5084328;28;20232;-45
2023/10/02 09:54:04;;;;;;;14.03;6.13;;;;;;;;;;5094844;28;20879;-39
2023/10/02 09:56:37;;;;;;;14.47;6.30;;;;;;;;;;5087129;28;20242;-41
2023/10/02 09:59:16;;;;;;;12.67;6.63;;;;;;;;;;5092638;28;20231;-42
2023/10/02 10:01:44;;;;;;;17.63;6.73;;;;;;;;;;5090180;28;20206;-44
2023/10/02 10:07:32;;;;;;;12.80;6.80;;;;;;;;;;5089387;28;20220;-41
2023/10/02 10:10:15;;;;;;;13.97;7.20;;;;;;;;;;5090648;28;20220;-45
2023/10/02 10:12:54;;;;;;;12.57;6.20;;;;;;;;;;5077238;28;20197;-42
2023/10/02 10:15:23;;;;;;;10.70;5.67;;;;;;;;;;5091767;28;20212;-43
2023/10/02 10:17:56;;;;;;;12.97;6.70;;;;;;;;;;5092294;28;20203;-42
2023/10/02 10:20:26;;;;;;;11.50;6.53;;;;;;;;;;5085896;28;20264;-39
2023/10/02 10:22:56;;;;;;;13.97;6.03;;;;;;;;;;5091711;28;20208;-41
2023/10/02 10:25:53;;;;;;;9.77;6.00;;;;;;;;;;5083974;28;20291;-42
2023/10/02 10:28:29;;;;;;;11.73;6.17;;;;;;;;;;5036278;28;20414;-44
2023/10/02 10:31:02;;;;;;;12.73;6.50;;;;;;;;;;5079333;28;20230;-42
2023/10/02 10:33:40;;;;;;;11.83;6.57;;;;;;;;;;5076916;28;20204;-41
2023/10/02 10:36:29;;;;;;;12.17;6.40;;;;;;;;;;5072488;28;20221;-42
2023/10/02 10:39:30;;;;;;;13.73;6.87;;;;;;;;;;5082312;28;20233;-45
2023/10/02 10:41:57;;;;;;;14.37;6.73;;;;;;;;;;5063640;28;20213;-42
2023/10/02 10:44:29;;;;;;;14.07;6.37;;;;;;;;;;5066628;28;20232;-44
2023/10/02 10:46:57;;;;;;;10.90;7.07;;;;;;;;;;5072690;28;20236;-43
2023/10/02 10:49:26;;;;;;;11.07;6.60;;;;;;;;;;5064317;28;20275;-43
2023/10/02 10:51:53;;;;;;;13.77;6.67;;;;;;;;;;5062119;28;20208;-42
2023/10/02 10:54:25;;;;;;;13.57;6.67;;;;;;;;;;5069332;28;20205;-43
2023/10/02 10:56:58;;;;;;;14.47;6.63;;;;;;;;;;5065386;28;20214;-42
2023/10/02 10:59:32;;;;;;;13.77;7.50;;;;;;;;;;5083665;28;20234;-44
2023/10/02 11:02:12;;;;;;;16.43;7.13;;;;;;;;;;5078898;28;20203;-41
2023/10/02 11:04:40;;;;;;;11.77;7.07;;;;;;;;;;5063246;28;20226;-45
2023/10/02 11:07:21;;;;;;;14.80;7.27;;;;;;;;;;5082192;28;20192;-42
2023/10/02 11:10:14;;;;;;;16.27;7.63;;;;;;;;;;5078962;28;20231;-44
2023/10/02 11:12:54;;;;;;;17.50;7.70;;;;;;;;;;5062818;28;20205;-43
2023/10/02 11:15:44;;;;;;;13.70;7.73;;;;;;;;;;5080800;28;20213;-43
2023/10/02 11:18:19;;;;;;;15.17;7.30;;;;;;;;;;5085822;28;20201;-43
2023/10/02 11:20:49;;;;;;;14.03;7.60;;;;;;;;;;5071010;28;20218;-41
2023/10/02 11:23:23;;;;;;;17.23;8.23;;;;;;;;;;5075622;28;20295;-38
2023/10/02 11:25:56;;;;;;;20.23;9.13;;;;;;;;;;5064327;28;20202;-42
2023/10/02 11:28:30;;;;;;;21.90;9.27;;;;;;;;;;5070589;28;20241;-44
2023/10/02 11:31:12;;;;;;;17.07;8.50;;;;;;;;;;5077990;28;20222;-43
2023/10/02 11:33:40;;;;;;;20.90;8.93;;;;;;;;;;5070047;28;20205;-40
2023/10/02 11:36:11;;;;;;;21.10;9.70;;;;;;;;;;5068708;28;20212;-42
2023/10/02 11:38:38;;;;;;;20.17;9.60;;;;;;;;;;5074121;28;20204;-43
2023/10/02 11:41:07;;;;;;;21.40;10.47;;;;;;;;;;5072181;28;20261;-40
2023/10/02 11:43:34;;;;;;;24.37;10.93;;;;;;;;;;5082264;28;20301;-41
2023/10/02 11:46:01;;;;;;;22.57;10.50;;;;;;;;;;5083256;28;20220;-45
2023/10/02 11:48:29;;;;;;;27.70;11.40;;;;;;;;;;5080558;28;20241;-42
2023/10/02 11:50:56;;;;;;;22.57;10.93;;;;;;;;;;5070110;28;20222;-43
2023/10/02 11:53:24;;;;;;;23.97;10.27;;;;;;;;;;5080820;28;20211;-43
2023/10/02 11:55:51;;;;;;;24.73;12.77;;;;;;;;;;5081190;28;20246;-41
2023/10/02 11:58:19;;;;;;;27.60;12.07;;;;;;;;;;5074398;28;20262;-42
2023/10/02 12:00:46;;;;;;;24.90;10.90;;;;;;;;;;5074053;28;20235;-43
2023/10/02 12:03:18;;;;;;;27.00;11.37;;;;;;;;;;5076376;28;20206;-41
2023/10/02 12:05:45;;;;;;;23.63;10.93;;;;;;;;;;5070036;28;20209;-42
2023/10/02 12:08:12;;;;;;;28.83;12.57;;;;;;;;;;5083054;28;20560;-40
2023/10/02 12:10:44;;;;;;;26.43;11.70;;;;;;;;;;5059892;28;20318;-41
2023/10/02 12:13:11;;;;;;;21.87;11.37;;;;;;;;;;5078224;28;20262;-43
2023/10/02 12:15:43;;;;;;;26.03;11.50;;;;;;;;;;5077881;28;20207;-39
2023/10/02 12:18:11;;;;;;;21.87;11.47;;;;;;;;;;5076631;28;20250;-43
2023/10/02 12:20:42;;;;;;;25.13;11.30;;;;;;;;;;5067068;28;20706;-42
2023/10/02 12:23:10;;;;;;;24.63;11.53;;;;;;;;;;5079355;28;20198;-39
2023/10/02 12:25:48;;;;;;;26.80;11.70;;;;;;;;;;5080026;28;20208;-39
2023/10/02 12:28:15;;;;;;;24.50;11.50;;;;;;;;;;5073222;28;20259;-40
2023/10/02 12:30:44;;;;;;;27.60;13.73;;;;;;;;;;5075105;28;20223;-45
2023/10/02 12:33:12;;;;;;;28.20;12.37;;;;;;;;;;5071611;28;20205;-43
2023/10/02 12:35:39;;;;;;;33.00;14.00;;;;;;;;;;5070450;28;20231;-41
2023/10/02 12:38:07;;;;;;;29.43;12.97;;;;;;;;;;5074680;28;20255;-42
2023/10/02 12:40:34;;;;;;;30.63;14.33;;;;;;;;;;5075024;28;20291;-41
2023/10/02 12:43:03;;;;;;;30.90;14.90;;;;;;;;;;5059606;28;20206;-43
2023/10/02 12:45:35;;;;;;;34.37;15.47;;;;;;;;;;5079606;28;20203;-39
2023/10/02 12:48:06;;;;;;;30.90;13.83;;;;;;;;;;5072019;28;20209;-44
2023/10/02 12:50:38;;;;;;;36.77;14.93;;;;;;;;;;5065173;28;20235;-43
2023/10/02 12:53:05;;;;;;;46.47;18.70;;;;;;;;;;5070975;28;20675;-44
2023/10/02 12:55:34;;;;;;;40.67;18.50;;;;;;;;;;5069455;28;20295;-43
2023/10/02 12:58:04;;;;;;;39.63;18.30;;;;;;;;;;5065060;28;20226;-44
2023/10/02 13:00:31;;;;;;;39.97;19.30;;;;;;;;;;5077981;28;20234;-44
2023/10/02 13:02:58;;;;;;;44.00;19.87;;;;;;;;;;5074733;28;20307;-43
2023/10/02 13:05:27;;;;;;;45.20;20.43;;;;;;;;;;5065872;28;20208;-42
2023/10/02 13:07:56;;;;;;;50.50;20.37;;;;;;;;;;5073414;28;20199;-45
2023/10/02 13:10:24;;;;;;;53.00;21.60;;;;;;;;;;5069315;28;20237;-42
2023/10/02 13:12:52;;;;;;;43.47;20.43;;;;;;;;;;5063375;28;20208;-45
2023/10/02 13:15:19;;;;;;;52.07;22.30;;;;;;;;;;5071497;28;20205;-41
2023/10/02 13:17:46;;;;;;;44.47;19.37;;;;;;;;;;5067230;28;20223;-45
2023/10/02 13:20:13;;;;;;;50.90;21.63;;;;;;;;;;5069430;28;20327;-43
2023/10/02 13:22:42;;;;;;;44.57;20.53;;;;;;;;;;5063922;28;20209;-39
2023/10/02 13:25:11;;;;;;;46.27;19.60;;;;;;;;;;5071776;28;20201;-45
2023/10/02 13:27:39;;;;;;;48.60;20.40;;;;;;;;;;5053610;28;20202;-42
2023/10/02 13:30:11;;;;;;;48.77;20.70;;;;;;;;;;5066210;28;20225;-39
2023/10/02 13:32:40;;;;;;;50.70;21.37;;;;;;;;;;5071426;28;20216;-42
2023/10/02 13:35:09;;;;;;;48.17;21.03;;;;;;;;;;5072313;28;20201;-38
2023/10/02 13:37:36;;;;;;;45.70;20.17;;;;;;;;;;5065998;28;20706;-44
2023/10/02 13:40:25;;;;;;;44.37;19.90;;;;;;;;;;5071277;28;20299;-42
2023/10/02 13:42:53;;;;;;;49.37;21.13;;;;;;;;;;5068577;28;20205;-40
2023/10/02 13:45:21;;;;;;;53.47;22.30;;;;;;;;;;5080527;28;20206;-40
2023/10/02 13:47:49;;;;;;;53.78;22.42;;;;;;;;;;5063181;28;20202;-44
2023/10/02 13:50:16;;;;;;;51.77;21.87;;;;;;;;;;5068524;28;20252;-43
2023/10/02 13:52:44;;;;;;;53.40;22.43;;;;;;;;;;5069387;28;20217;-43
2023/10/02 13:57:57;;;;;;;53.78;22.95;;;;;;;;;;5051712;28;20229;-42
2023/10/02 14:00:26;;;;;;;48.93;22.33;;;;;;;;;;5076978;28;20489;-40
2023/10/02 14:02:54;;;;;;;54.17;22.63;;;;;;;;;;5072338;28;20651;-43
2023/10/02 14:05:24;;;;;;;50.50;21.77;;;;;;;;;;5068142;28;20234;-43
2023/10/02 14:07:51;;;;;;;51.60;22.33;;;;;;;;;;5062817;28;20252;-45
2023/10/02 14:10:21;;;;;;;54.00;22.50;;;;;;;;;;5076261;28;20267;-41
2023/10/02 14:12:48;;;;;;;54.43;22.70;;;;;;;;;;5064769;28;20216;-40
2023/10/02 14:15:17;;;;;;;54.63;22.67;;;;;;;;;;5072425;28;20201;-43
2023/10/02 14:17:45;;;;;;;47.97;22.23;;;;;;;;;;5073783;28;20209;-45
2023/10/02 14:20:14;;;;;;;57.97;23.53;;;;;;;;;;5069105;28;20225;-39
2023/10/02 14:22:42;;;;;;;49.77;21.30;;;;;;;;;;5072676;28;20213;-44
2023/10/02 14:25:10;;;;;;;50.03;21.93;;;;;;;;;;5074372;28;20272;-42
2023/10/02 14:27:39;;;;;;;52.60;23.00;;;;;;;;;;5056734;28;20263;-42
2023/10/02 14:30:12;;;;;;;52.67;22.33;;;;;;;;;;5069331;28;20232;-43
2023/10/02 14:32:39;;;;;;;55.15;23.38;;;;;;;;;;5071954;28;20247;-42
2023/10/02 14:35:07;;;;;;;50.03;22.80;;;;;;;;;;5057554;28;20223;-40
2023/10/02 14:37:35;;;;;;;52.30;21.52;;;;;;;;;;5073552;28;20212;-42
2023/10/02 14:40:03;;;;;;;50.97;21.87;;;;;;;;;;5070235;28;20282;-43
2023/10/02 14:42:30;;;;;;;49.67;21.13;;;;;;;;;;5059446;28;20213;-41
2023/10/02 14:44:59;;;;;;;52.40;22.25;;;;;;;;;;5072633;28;20201;-40
2023/10/02 14:47:26;;;;;;;49.00;21.17;;;;;;;;;;5074815;28;20205;-42
2023/10/02 14:49:54;;;;;;;48.40;21.40;;;;;;;;;;5060576;28;20263;-44
2023/10/02 14:52:22;;;;;;;47.50;20.40;;;;;;;;;;5063835;28;20209;-41
2023/10/02 14:54:50;;;;;;;57.35;21.58;;;;;;;;;;5074311;28;20655;-45
2023/10/02 14:57:18;;;;;;;48.88;22.23;;;;;;;;;;5065731;28;20224;-45
2023/10/02 14:59:46;;;;;;;54.00;22.03;;;;;;;;;;5072517;28;20732;-42
2023/10/02 15:02:14;;;;;;;50.60;20.83;;;;;;;;;;5074150;28;20205;-42
2023/10/02 15:04:43;;;;;;;45.78;20.55;;;;;;;;;;5063962;28;20232;-44
2023/10/02 15:07:11;;;;;;;44.90;20.77;;;;;;;;;;5070390;28;20316;-40
2023/10/02 15:09:38;;;;;;;47.80;19.80;;;;;;;;;;5073790;28;20286;-41
2023/10/02 15:12:06;;;;;;;57.42;22.08;;;;;;;;;;5070119;28;20579;-44
2023/10/02 15:14:35;;;;;;;47.83;21.20;;;;;;;;;;5072793;28;20205;-42
2023/10/02 15:17:03;;;;;;;46.93;19.70;;;;;;;;;;5073240;28;20209;-44
2023/10/02 15:19:32;;;;;;;46.73;21.30;;;;;;;;;;5061239;28;20231;-41
2023/10/02 15:21:59;;;;;;;45.08;19.23;;;;;;;;;;5062563;28;20193;-42
2023/10/02 15:24:26;;;;;;;47.03;21.47;;;;;;;;;;5069850;28;20215;-43
2023/10/02 15:26:54;;;;;;;50.40;21.07;;;;;;;;;;5060793;28;20204;-43